sensor_id;sensor_type;location;lat;lon;timestamp;P1;durP1;ratioP1;P2;durP2;ratioP2
7104;SDS011;3594;42.152;24.714;2022-07-25T00:01:34;11.07;;;6.68;;
7104;SDS011;3594;42.152;24.714;2022-07-25T00:03:59;10.52;;;6.78;;
7104;SDS011;3594;42.152;24.714;2022-07-25T00:06:24;11.20;;;6.72;;
7104;SDS011;3594;42.152;24.714;2022-07-25T00:08:50;12.00;;;6.55;;
7104;SDS011;3594;42.152;24.714;2022-07-25T00:11:16;10.43;;;6.55;;
7104;SDS011;3594;42.152;24.714;2022-07-25T00:13:41;11.07;;;6.40;;
7104;SDS011;3594;42.152;24.714;2022-07-25T00:16:07;10.18;;;6.20;;
7104;SDS011;3594;42.152;24.714;2022-07-25T00:18:32;12.23;;;6.68;;
7104;SDS011;3594;42.152;24.714;2022-07-25T00:20:58;9.95;;;5.72;;
7104;SDS011;3594;42.152;24.714;2022-07-25T00:23:23;10.38;;;5.82;;
7104;SDS011;3594;42.152;24.714;2022-07-25T00:25:48;10.10;;;6.22;;
7104;SDS011;3594;42.152;24.714;2022-07-25T00:28:14;10.63;;;6.22;;
7104;SDS011;3594;42.152;24.714;2022-07-25T00:30:39;11.82;;;6.15;;
7104;SDS011;3594;42.152;24.714;2022-07-25T00:33:05;10.23;;;5.10;;
7104;SDS011;3594;42.152;24.714;2022-07-25T00:35:30;8.43;;;5.80;;
7104;SDS011;3594;42.152;24.714;2022-07-25T00:37:56;8.90;;;5.32;;
7104;SDS011;3594;42.152;24.714;2022-07-25T00:40:21;12.05;;;5.82;;
7104;SDS011;3594;42.152;24.714;2022-07-25T00:42:47;10.02;;;5.75;;
7104;SDS011;3594;42.152;24.714;2022-07-25T00:45:12;9.65;;;5.75;;
7104;SDS011;3594;42.152;24.714;2022-07-25T00:47:38;9.55;;;5.20;;
7104;SDS011;3594;42.152;24.714;2022-07-25T00:50:03;10.35;;;5.38;;
7104;SDS011;3594;42.152;24.714;2022-07-25T00:52:29;8.73;;;5.25;;
7104;SDS011;3594;42.152;24.714;2022-07-25T00:54:54;9.00;;;5.82;;
7104;SDS011;3594;42.152;24.714;2022-07-25T00:57:21;8.95;;;5.03;;
7104;SDS011;3594;42.152;24.714;2022-07-25T00:59:47;7.28;;;4.93;;
7104;SDS011;3594;42.152;24.714;2022-07-25T01:02:12;9.13;;;5.47;;
7104;SDS011;3594;42.152;24.714;2022-07-25T01:04:38;8.60;;;5.60;;
7104;SDS011;3594;42.152;24.714;2022-07-25T01:07:04;9.32;;;5.45;;
7104;SDS011;3594;42.152;24.714;2022-07-25T01:09:30;9.27;;;4.88;;
7104;SDS011;3594;42.152;24.714;2022-07-25T01:11:56;8.93;;;4.97;;
7104;SDS011;3594;42.152;24.714;2022-07-25T01:14:22;6.78;;;4.95;;
7104;SDS011;3594;42.152;24.714;2022-07-25T01:16:47;7.43;;;5.00;;
7104;SDS011;3594;42.152;24.714;2022-07-25T01:19:13;11.23;;;6.30;;
7104;SDS011;3594;42.152;24.714;2022-07-25T01:21:38;9.98;;;5.28;;
7104;SDS011;3594;42.152;24.714;2022-07-25T01:24:05;8.30;;;5.20;;
7104;SDS011;3594;42.152;24.714;2022-07-25T01:26:31;8.80;;;5.45;;
7104;SDS011;3594;42.152;24.714;2022-07-25T01:28:57;7.25;;;4.80;;
7104;SDS011;3594;42.152;24.714;2022-07-25T01:31:23;9.18;;;5.18;;
7104;SDS011;3594;42.152;24.714;2022-07-25T01:33:49;7.63;;;4.70;;
7104;SDS011;3594;42.152;24.714;2022-07-25T01:36:14;8.77;;;5.40;;
7104;SDS011;3594;42.152;24.714;2022-07-25T01:38:39;9.25;;;5.18;;
7104;SDS011;3594;42.152;24.714;2022-07-25T01:41:05;8.77;;;5.10;;
7104;SDS011;3594;42.152;24.714;2022-07-25T01:43:30;8.25;;;5.40;;
7104;SDS011;3594;42.152;24.714;2022-07-25T01:45:56;10.15;;;6.03;;
7104;SDS011;3594;42.152;24.714;2022-07-25T01:48:28;6.78;;;4.78;;
7104;SDS011;3594;42.152;24.714;2022-07-25T01:51:04;7.47;;;5.10;;
7104;SDS011;3594;42.152;24.714;2022-07-25T01:53:30;7.93;;;4.88;;
7104;SDS011;3594;42.152;24.714;2022-07-25T01:55:55;8.68;;;5.32;;
7104;SDS011;3594;42.152;24.714;2022-07-25T01:58:20;9.05;;;5.55;;
7104;SDS011;3594;42.152;24.714;2022-07-25T02:00:46;7.65;;;5.10;;
7104;SDS011;3594;42.152;24.714;2022-07-25T02:03:12;8.85;;;5.45;;
7104;SDS011;3594;42.152;24.714;2022-07-25T02:06:00;12.30;;;5.78;;
7104;SDS011;3594;42.152;24.714;2022-07-25T02:08:28;11.00;;;5.47;;
7104;SDS011;3594;42.152;24.714;2022-07-25T02:10:54;7.75;;;5.18;;
7104;SDS011;3594;42.152;24.714;2022-07-25T02:13:20;9.00;;;5.22;;
7104;SDS011;3594;42.152;24.714;2022-07-25T02:15:46;8.13;;;5.38;;
7104;SDS011;3594;42.152;24.714;2022-07-25T02:18:12;7.57;;;4.63;;
7104;SDS011;3594;42.152;24.714;2022-07-25T02:20:37;10.35;;;4.97;;
7104;SDS011;3594;42.152;24.714;2022-07-25T02:23:03;10.73;;;4.53;;
7104;SDS011;3594;42.152;24.714;2022-07-25T02:25:29;9.55;;;5.38;;
7104;SDS011;3594;42.152;24.714;2022-07-25T02:27:56;10.05;;;5.80;;
7104;SDS011;3594;42.152;24.714;2022-07-25T02:30:21;11.70;;;6.13;;
7104;SDS011;3594;42.152;24.714;2022-07-25T02:32:46;9.07;;;5.53;;
7104;SDS011;3594;42.152;24.714;2022-07-25T02:35:12;9.07;;;5.60;;
7104;SDS011;3594;42.152;24.714;2022-07-25T02:37:37;8.18;;;5.40;;
7104;SDS011;3594;42.152;24.714;2022-07-25T02:40:03;8.52;;;5.32;;
7104;SDS011;3594;42.152;24.714;2022-07-25T02:42:29;8.60;;;5.32;;
7104;SDS011;3594;42.152;24.714;2022-07-25T02:44:55;9.07;;;5.68;;
7104;SDS011;3594;42.152;24.714;2022-07-25T02:47:20;8.68;;;5.35;;
7104;SDS011;3594;42.152;24.714;2022-07-25T02:49:45;6.70;;;4.40;;
7104;SDS011;3594;42.152;24.714;2022-07-25T02:52:11;8.43;;;4.68;;
7104;SDS011;3594;42.152;24.714;2022-07-25T02:54:36;8.00;;;5.10;;
7104;SDS011;3594;42.152;24.714;2022-07-25T02:57:02;8.07;;;5.03;;
7104;SDS011;3594;42.152;24.714;2022-07-25T02:59:27;7.47;;;4.53;;
7104;SDS011;3594;42.152;24.714;2022-07-25T03:01:53;7.70;;;4.70;;
7104;SDS011;3594;42.152;24.714;2022-07-25T03:04:18;7.28;;;4.55;;
7104;SDS011;3594;42.152;24.714;2022-07-25T03:06:44;6.47;;;4.45;;
7104;SDS011;3594;42.152;24.714;2022-07-25T03:09:09;7.43;;;4.57;;
7104;SDS011;3594;42.152;24.714;2022-07-25T03:11:34;7.55;;;4.68;;
7104;SDS011;3594;42.152;24.714;2022-07-25T03:14:00;7.55;;;4.85;;
7104;SDS011;3594;42.152;24.714;2022-07-25T03:16:25;7.68;;;4.80;;
7104;SDS011;3594;42.152;24.714;2022-07-25T03:18:51;6.93;;;4.60;;
7104;SDS011;3594;42.152;24.714;2022-07-25T03:21:16;5.93;;;4.10;;
7104;SDS011;3594;42.152;24.714;2022-07-25T03:23:42;6.75;;;4.30;;
7104;SDS011;3594;42.152;24.714;2022-07-25T03:26:07;8.60;;;5.15;;
7104;SDS011;3594;42.152;24.714;2022-07-25T03:28:33;7.38;;;4.43;;
7104;SDS011;3594;42.152;24.714;2022-07-25T03:30:58;6.50;;;4.10;;
7104;SDS011;3594;42.152;24.714;2022-07-25T03:33:24;9.02;;;4.93;;
7104;SDS011;3594;42.152;24.714;2022-07-25T03:35:49;7.50;;;4.70;;
7104;SDS011;3594;42.152;24.714;2022-07-25T03:38:15;7.30;;;4.68;;
7104;SDS011;3594;42.152;24.714;2022-07-25T03:40:40;7.63;;;4.68;;
7104;SDS011;3594;42.152;24.714;2022-07-25T03:43:06;8.52;;;4.63;;
7104;SDS011;3594;42.152;24.714;2022-07-25T03:45:31;6.25;;;4.38;;
7104;SDS011;3594;42.152;24.714;2022-07-25T03:47:56;10.15;;;4.90;;
7104;SDS011;3594;42.152;24.714;2022-07-25T03:50:25;6.63;;;4.55;;
7104;SDS011;3594;42.152;24.714;2022-07-25T03:52:50;8.68;;;5.72;;
7104;SDS011;3594;42.152;24.714;2022-07-25T03:55:15;6.43;;;4.75;;
7104;SDS011;3594;42.152;24.714;2022-07-25T03:57:41;7.88;;;4.78;;
7104;SDS011;3594;42.152;24.714;2022-07-25T04:00:07;8.10;;;5.28;;
7104;SDS011;3594;42.152;24.714;2022-07-25T04:02:34;7.88;;;5.32;;
7104;SDS011;3594;42.152;24.714;2022-07-25T04:05:01;10.15;;;5.05;;
7104;SDS011;3594;42.152;24.714;2022-07-25T04:07:27;7.80;;;5.38;;
7104;SDS011;3594;42.152;24.714;2022-07-25T04:09:53;7.60;;;4.95;;
7104;SDS011;3594;42.152;24.714;2022-07-25T04:12:18;7.68;;;4.90;;
7104;SDS011;3594;42.152;24.714;2022-07-25T04:14:44;9.20;;;5.35;;
7104;SDS011;3594;42.152;24.714;2022-07-25T04:17:09;7.32;;;4.82;;
7104;SDS011;3594;42.152;24.714;2022-07-25T04:19:35;7.72;;;5.05;;
7104;SDS011;3594;42.152;24.714;2022-07-25T04:22:00;7.15;;;4.85;;
7104;SDS011;3594;42.152;24.714;2022-07-25T04:24:26;9.30;;;4.88;;
7104;SDS011;3594;42.152;24.714;2022-07-25T04:26:51;7.38;;;5.00;;
7104;SDS011;3594;42.152;24.714;2022-07-25T04:29:17;8.10;;;5.20;;
7104;SDS011;3594;42.152;24.714;2022-07-25T04:31:42;7.65;;;4.80;;
7104;SDS011;3594;42.152;24.714;2022-07-25T04:34:08;11.15;;;5.63;;
7104;SDS011;3594;42.152;24.714;2022-07-25T04:36:33;7.18;;;4.72;;
7104;SDS011;3594;42.152;24.714;2022-07-25T04:38:58;8.68;;;4.63;;
7104;SDS011;3594;42.152;24.714;2022-07-25T04:41:24;9.32;;;4.63;;
7104;SDS011;3594;42.152;24.714;2022-07-25T04:43:49;6.97;;;4.65;;
7104;SDS011;3594;42.152;24.714;2022-07-25T04:46:21;9.63;;;4.88;;
7104;SDS011;3594;42.152;24.714;2022-07-25T04:48:47;7.68;;;4.78;;
7104;SDS011;3594;42.152;24.714;2022-07-25T04:51:13;10.05;;;4.90;;
7104;SDS011;3594;42.152;24.714;2022-07-25T04:53:39;8.60;;;5.20;;
7104;SDS011;3594;42.152;24.714;2022-07-25T04:56:05;7.88;;;4.85;;
7104;SDS011;3594;42.152;24.714;2022-07-25T04:58:30;7.57;;;4.80;;
7104;SDS011;3594;42.152;24.714;2022-07-25T05:00:56;7.00;;;4.55;;
7104;SDS011;3594;42.152;24.714;2022-07-25T05:03:22;7.72;;;5.05;;
7104;SDS011;3594;42.152;24.714;2022-07-25T05:05:48;8.18;;;4.63;;
7104;SDS011;3594;42.152;24.714;2022-07-25T05:08:14;9.57;;;5.07;;
7104;SDS011;3594;42.152;24.714;2022-07-25T05:10:40;8.43;;;5.35;;
7104;SDS011;3594;42.152;24.714;2022-07-25T05:13:05;8.30;;;5.18;;
7104;SDS011;3594;42.152;24.714;2022-07-25T05:15:31;8.32;;;4.82;;
7104;SDS011;3594;42.152;24.714;2022-07-25T05:17:56;7.50;;;5.20;;
7104;SDS011;3594;42.152;24.714;2022-07-25T05:20:22;7.97;;;5.18;;
7104;SDS011;3594;42.152;24.714;2022-07-25T05:22:48;8.85;;;5.15;;
7104;SDS011;3594;42.152;24.714;2022-07-25T05:25:13;8.13;;;5.07;;
7104;SDS011;3594;42.152;24.714;2022-07-25T05:27:39;8.05;;;5.45;;
7104;SDS011;3594;42.152;24.714;2022-07-25T05:30:05;9.05;;;5.35;;
7104;SDS011;3594;42.152;24.714;2022-07-25T05:32:31;8.48;;;5.28;;
7104;SDS011;3594;42.152;24.714;2022-07-25T05:34:57;8.02;;;4.93;;
7104;SDS011;3594;42.152;24.714;2022-07-25T05:37:22;7.88;;;4.75;;
7104;SDS011;3594;42.152;24.714;2022-07-25T05:39:48;8.30;;;5.22;;
7104;SDS011;3594;42.152;24.714;2022-07-25T05:42:13;8.82;;;5.22;;
7104;SDS011;3594;42.152;24.714;2022-07-25T05:44:39;8.05;;;4.80;;
7104;SDS011;3594;42.152;24.714;2022-07-25T05:47:08;7.13;;;5.15;;
7104;SDS011;3594;42.152;24.714;2022-07-25T05:49:35;6.85;;;4.75;;
7104;SDS011;3594;42.152;24.714;2022-07-25T05:52:00;9.02;;;5.43;;
7104;SDS011;3594;42.152;24.714;2022-07-25T05:54:26;9.10;;;5.72;;
7104;SDS011;3594;42.152;24.714;2022-07-25T05:56:51;9.40;;;5.85;;
7104;SDS011;3594;42.152;24.714;2022-07-25T05:59:17;9.63;;;5.57;;
7104;SDS011;3594;42.152;24.714;2022-07-25T06:01:42;9.50;;;5.75;;
7104;SDS011;3594;42.152;24.714;2022-07-25T06:04:08;7.50;;;5.13;;
7104;SDS011;3594;42.152;24.714;2022-07-25T06:06:34;11.05;;;5.88;;
7104;SDS011;3594;42.152;24.714;2022-07-25T06:08:59;11.23;;;5.40;;
7104;SDS011;3594;42.152;24.714;2022-07-25T06:11:25;8.57;;;5.32;;
7104;SDS011;3594;42.152;24.714;2022-07-25T06:13:52;9.07;;;5.43;;
7104;SDS011;3594;42.152;24.714;2022-07-25T06:16:18;9.05;;;5.55;;
7104;SDS011;3594;42.152;24.714;2022-07-25T06:18:44;12.65;;;6.25;;
7104;SDS011;3594;42.152;24.714;2022-07-25T06:21:09;9.35;;;5.45;;
7104;SDS011;3594;42.152;24.714;2022-07-25T06:23:35;8.75;;;5.25;;
7104;SDS011;3594;42.152;24.714;2022-07-25T06:26:00;8.80;;;5.22;;
7104;SDS011;3594;42.152;24.714;2022-07-25T06:28:25;8.88;;;5.32;;
7104;SDS011;3594;42.152;24.714;2022-07-25T06:30:51;7.40;;;5.13;;
7104;SDS011;3594;42.152;24.714;2022-07-25T06:33:16;8.63;;;5.43;;
7104;SDS011;3594;42.152;24.714;2022-07-25T06:35:42;10.43;;;5.43;;
7104;SDS011;3594;42.152;24.714;2022-07-25T06:38:07;8.43;;;5.65;;
7104;SDS011;3594;42.152;24.714;2022-07-25T06:40:33;8.13;;;5.47;;
7104;SDS011;3594;42.152;24.714;2022-07-25T06:42:58;10.07;;;5.85;;
7104;SDS011;3594;42.152;24.714;2022-07-25T06:45:24;8.23;;;5.70;;
7104;SDS011;3594;42.152;24.714;2022-07-25T06:47:50;10.73;;;5.63;;
7104;SDS011;3594;42.152;24.714;2022-07-25T06:50:17;8.52;;;5.85;;
7104;SDS011;3594;42.152;24.714;2022-07-25T06:52:43;8.35;;;5.30;;
7104;SDS011;3594;42.152;24.714;2022-07-25T06:55:10;8.32;;;5.57;;
7104;SDS011;3594;42.152;24.714;2022-07-25T06:57:36;7.45;;;5.03;;
7104;SDS011;3594;42.152;24.714;2022-07-25T07:00:03;8.00;;;5.40;;
7104;SDS011;3594;42.152;24.714;2022-07-25T07:02:32;8.90;;;5.60;;
7104;SDS011;3594;42.152;24.714;2022-07-25T07:04:57;9.57;;;6.07;;
7104;SDS011;3594;42.152;24.714;2022-07-25T07:07:23;8.27;;;5.07;;
7104;SDS011;3594;42.152;24.714;2022-07-25T07:09:48;10.48;;;5.85;;
7104;SDS011;3594;42.152;24.714;2022-07-25T07:12:14;8.57;;;5.72;;
7104;SDS011;3594;42.152;24.714;2022-07-25T07:14:39;9.25;;;5.78;;
7104;SDS011;3594;42.152;24.714;2022-07-25T07:17:05;7.60;;;5.22;;
7104;SDS011;3594;42.152;24.714;2022-07-25T07:19:31;9.48;;;5.47;;
7104;SDS011;3594;42.152;24.714;2022-07-25T07:21:56;7.85;;;5.53;;
7104;SDS011;3594;42.152;24.714;2022-07-25T07:24:22;7.88;;;5.05;;
7104;SDS011;3594;42.152;24.714;2022-07-25T07:26:47;9.27;;;5.75;;
7104;SDS011;3594;42.152;24.714;2022-07-25T07:29:13;9.60;;;5.50;;
7104;SDS011;3594;42.152;24.714;2022-07-25T07:31:39;9.32;;;5.43;;
7104;SDS011;3594;42.152;24.714;2022-07-25T07:34:05;9.85;;;5.30;;
7104;SDS011;3594;42.152;24.714;2022-07-25T07:36:30;8.13;;;5.38;;
7104;SDS011;3594;42.152;24.714;2022-07-25T07:38:56;8.75;;;5.60;;
7104;SDS011;3594;42.152;24.714;2022-07-25T07:41:21;8.57;;;5.50;;
7104;SDS011;3594;42.152;24.714;2022-07-25T07:43:47;8.52;;;5.35;;
7104;SDS011;3594;42.152;24.714;2022-07-25T07:46:12;9.07;;;5.75;;
7104;SDS011;3594;42.152;24.714;2022-07-25T07:48:38;9.25;;;5.68;;
7104;SDS011;3594;42.152;24.714;2022-07-25T07:51:03;8.07;;;5.53;;
7104;SDS011;3594;42.152;24.714;2022-07-25T07:53:30;9.40;;;5.25;;
7104;SDS011;3594;42.152;24.714;2022-07-25T07:56:14;7.68;;;4.97;;
7104;SDS011;3594;42.152;24.714;2022-07-25T07:58:41;7.82;;;5.20;;
7104;SDS011;3594;42.152;24.714;2022-07-25T08:01:07;8.00;;;4.95;;
7104;SDS011;3594;42.152;24.714;2022-07-25T08:03:33;13.52;;;5.30;;
7104;SDS011;3594;42.152;24.714;2022-07-25T08:05:58;8.30;;;5.15;;
7104;SDS011;3594;42.152;24.714;2022-07-25T08:08:24;8.77;;;5.50;;
7104;SDS011;3594;42.152;24.714;2022-07-25T08:10:49;8.52;;;5.47;;
7104;SDS011;3594;42.152;24.714;2022-07-25T08:13:18;6.90;;;4.85;;
7104;SDS011;3594;42.152;24.714;2022-07-25T08:15:50;9.18;;;5.20;;
7104;SDS011;3594;42.152;24.714;2022-07-25T08:18:17;8.65;;;5.45;;
7104;SDS011;3594;42.152;24.714;2022-07-25T08:20:43;7.53;;;4.85;;
7104;SDS011;3594;42.152;24.714;2022-07-25T08:23:09;9.57;;;5.40;;
7104;SDS011;3594;42.152;24.714;2022-07-25T08:25:35;8.88;;;5.63;;
7104;SDS011;3594;42.152;24.714;2022-07-25T08:28:02;7.70;;;5.28;;
7104;SDS011;3594;42.152;24.714;2022-07-25T08:30:30;8.13;;;5.30;;
7104;SDS011;3594;42.152;24.714;2022-07-25T08:32:57;8.52;;;5.13;;
7104;SDS011;3594;42.152;24.714;2022-07-25T08:35:25;7.75;;;4.95;;
7104;SDS011;3594;42.152;24.714;2022-07-25T08:37:52;8.50;;;5.03;;
7104;SDS011;3594;42.152;24.714;2022-07-25T08:40:20;7.82;;;5.28;;
7104;SDS011;3594;42.152;24.714;2022-07-25T08:42:47;7.35;;;5.43;;
7104;SDS011;3594;42.152;24.714;2022-07-25T08:45:14;9.30;;;5.43;;
7104;SDS011;3594;42.152;24.714;2022-07-25T08:47:42;8.10;;;5.15;;
7104;SDS011;3594;42.152;24.714;2022-07-25T08:50:09;9.20;;;5.43;;
7104;SDS011;3594;42.152;24.714;2022-07-25T08:52:37;7.95;;;5.40;;
7104;SDS011;3594;42.152;24.714;2022-07-25T08:55:03;7.43;;;5.03;;
7104;SDS011;3594;42.152;24.714;2022-07-25T08:57:32;7.35;;;5.18;;
7104;SDS011;3594;42.152;24.714;2022-07-25T08:59:58;9.23;;;4.93;;
7104;SDS011;3594;42.152;24.714;2022-07-25T09:02:25;6.07;;;4.57;;
7104;SDS011;3594;42.152;24.714;2022-07-25T09:04:51;8.85;;;4.28;;
7104;SDS011;3594;42.152;24.714;2022-07-25T09:07:27;6.68;;;4.35;;
7104;SDS011;3594;42.152;24.714;2022-07-25T09:09:54;7.35;;;4.70;;
7104;SDS011;3594;42.152;24.714;2022-07-25T09:12:23;7.15;;;4.85;;
7104;SDS011;3594;42.152;24.714;2022-07-25T09:14:50;7.20;;;4.88;;
7104;SDS011;3594;42.152;24.714;2022-07-25T09:17:15;7.03;;;4.63;;
7104;SDS011;3594;42.152;24.714;2022-07-25T09:19:41;8.02;;;5.03;;
7104;SDS011;3594;42.152;24.714;2022-07-25T09:22:16;6.78;;;4.70;;
7104;SDS011;3594;42.152;24.714;2022-07-25T09:24:43;6.55;;;5.00;;
7104;SDS011;3594;42.152;24.714;2022-07-25T09:27:09;6.38;;;4.72;;
7104;SDS011;3594;42.152;24.714;2022-07-25T09:29:37;8.07;;;4.70;;
7104;SDS011;3594;42.152;24.714;2022-07-25T09:34:46;7.70;;;4.63;;
7104;SDS011;3594;42.152;24.714;2022-07-25T09:37:16;6.40;;;4.60;;
7104;SDS011;3594;42.152;24.714;2022-07-25T09:39:47;7.72;;;4.60;;
7104;SDS011;3594;42.152;24.714;2022-07-25T09:44:40;7.28;;;4.60;;
7104;SDS011;3594;42.152;24.714;2022-07-25T09:47:09;6.32;;;4.25;;
7104;SDS011;3594;42.152;24.714;2022-07-25T09:49:39;6.43;;;4.53;;
7104;SDS011;3594;42.152;24.714;2022-07-25T09:52:06;5.85;;;4.32;;
7104;SDS011;3594;42.152;24.714;2022-07-25T09:54:33;7.45;;;4.97;;
7104;SDS011;3594;42.152;24.714;2022-07-25T09:56:58;9.10;;;4.57;;
7104;SDS011;3594;42.152;24.714;2022-07-25T09:59:24;6.32;;;4.20;;
7104;SDS011;3594;42.152;24.714;2022-07-25T10:01:51;6.63;;;4.30;;
7104;SDS011;3594;42.152;24.714;2022-07-25T10:04:46;7.25;;;4.68;;
7104;SDS011;3594;42.152;24.714;2022-07-25T10:07:20;7.15;;;4.45;;
7104;SDS011;3594;42.152;24.714;2022-07-25T10:09:48;6.80;;;4.78;;
7104;SDS011;3594;42.152;24.714;2022-07-25T10:12:19;7.30;;;4.85;;
7104;SDS011;3594;42.152;24.714;2022-07-25T10:15:05;6.68;;;4.70;;
7104;SDS011;3594;42.152;24.714;2022-07-25T10:17:34;5.85;;;4.35;;
7104;SDS011;3594;42.152;24.714;2022-07-25T10:20:00;7.85;;;4.75;;
7104;SDS011;3594;42.152;24.714;2022-07-25T10:22:37;5.68;;;4.25;;
7104;SDS011;3594;42.152;24.714;2022-07-25T10:25:15;7.45;;;4.65;;
7104;SDS011;3594;42.152;24.714;2022-07-25T10:27:44;8.20;;;4.75;;
7104;SDS011;3594;42.152;24.714;2022-07-25T10:30:22;7.07;;;4.40;;
7104;SDS011;3594;42.152;24.714;2022-07-25T10:33:00;6.57;;;4.60;;
7104;SDS011;3594;42.152;24.714;2022-07-25T10:35:31;6.65;;;4.40;;
7104;SDS011;3594;42.152;24.714;2022-07-25T10:37:57;6.65;;;4.75;;
7104;SDS011;3594;42.152;24.714;2022-07-25T10:40:36;8.25;;;4.72;;
7104;SDS011;3594;42.152;24.714;2022-07-25T10:45:38;7.60;;;4.55;;
7104;SDS011;3594;42.152;24.714;2022-07-25T10:48:10;8.30;;;4.88;;
7104;SDS011;3594;42.152;24.714;2022-07-25T10:50:47;6.75;;;4.50;;
7104;SDS011;3594;42.152;24.714;2022-07-25T10:53:25;7.18;;;4.75;;
7104;SDS011;3594;42.152;24.714;2022-07-25T10:56:36;7.55;;;4.43;;
7104;SDS011;3594;42.152;24.714;2022-07-25T11:01:21;9.27;;;5.10;;
7104;SDS011;3594;42.152;24.714;2022-07-25T11:03:51;7.43;;;5.10;;
7104;SDS011;3594;42.152;24.714;2022-07-25T11:06:31;7.03;;;4.68;;
7104;SDS011;3594;42.152;24.714;2022-07-25T11:09:03;9.63;;;4.85;;
7104;SDS011;3594;42.152;24.714;2022-07-25T11:11:41;8.75;;;4.63;;
7104;SDS011;3594;42.152;24.714;2022-07-25T11:14:20;8.75;;;5.85;;
7104;SDS011;3594;42.152;24.714;2022-07-25T11:16:47;7.65;;;5.13;;
7104;SDS011;3594;42.152;24.714;2022-07-25T11:21:50;10.57;;;5.45;;
7104;SDS011;3594;42.152;24.714;2022-07-25T11:24:32;7.50;;;5.28;;
7104;SDS011;3594;42.152;24.714;2022-07-25T11:27:06;8.93;;;5.38;;
7104;SDS011;3594;42.152;24.714;2022-07-25T11:29:33;7.47;;;4.78;;
7104;SDS011;3594;42.152;24.714;2022-07-25T11:32:01;7.18;;;4.90;;
7104;SDS011;3594;42.152;24.714;2022-07-25T11:34:29;7.78;;;5.18;;
7104;SDS011;3594;42.152;24.714;2022-07-25T11:36:57;9.15;;;5.22;;
7104;SDS011;3594;42.152;24.714;2022-07-25T11:39:26;14.68;;;5.88;;
7104;SDS011;3594;42.152;24.714;2022-07-25T11:44:45;9.15;;;5.45;;
7104;SDS011;3594;42.152;24.714;2022-07-25T11:47:23;8.80;;;5.22;;
7104;SDS011;3594;42.152;24.714;2022-07-25T11:49:50;9.88;;;5.13;;
7104;SDS011;3594;42.152;24.714;2022-07-25T11:52:22;7.10;;;5.28;;
7104;SDS011;3594;42.152;24.714;2022-07-25T11:54:50;8.00;;;4.70;;
7104;SDS011;3594;42.152;24.714;2022-07-25T11:57:26;7.95;;;5.00;;
7104;SDS011;3594;42.152;24.714;2022-07-25T11:59:54;8.32;;;4.90;;
7104;SDS011;3594;42.152;24.714;2022-07-25T12:02:21;7.10;;;4.65;;
7104;SDS011;3594;42.152;24.714;2022-07-25T12:04:57;7.63;;;4.85;;
7104;SDS011;3594;42.152;24.714;2022-07-25T12:07:44;9.30;;;5.03;;
7104;SDS011;3594;42.152;24.714;2022-07-25T12:10:12;7.88;;;5.20;;
7104;SDS011;3594;42.152;24.714;2022-07-25T12:12:41;11.18;;;5.28;;
7104;SDS011;3594;42.152;24.714;2022-07-25T12:18:29;8.55;;;4.82;;
7104;SDS011;3594;42.152;24.714;2022-07-25T12:20:54;8.10;;;5.00;;
7104;SDS011;3594;42.152;24.714;2022-07-25T12:23:20;8.00;;;5.00;;
7104;SDS011;3594;42.152;24.714;2022-07-25T12:25:48;7.68;;;5.45;;
7104;SDS011;3594;42.152;24.714;2022-07-25T12:28:14;8.20;;;5.22;;
7104;SDS011;3594;42.152;24.714;2022-07-25T12:30:42;8.35;;;4.90;;
7104;SDS011;3594;42.152;24.714;2022-07-25T12:33:08;9.23;;;5.47;;
7104;SDS011;3594;42.152;24.714;2022-07-25T12:35:35;7.63;;;5.05;;
7104;SDS011;3594;42.152;24.714;2022-07-25T12:38:01;9.13;;;5.85;;
7104;SDS011;3594;42.152;24.714;2022-07-25T12:40:27;8.95;;;5.78;;
7104;SDS011;3594;42.152;24.714;2022-07-25T12:42:52;7.28;;;4.88;;
7104;SDS011;3594;42.152;24.714;2022-07-25T12:45:18;9.20;;;5.78;;
7104;SDS011;3594;42.152;24.714;2022-07-25T12:47:44;9.77;;;5.03;;
7104;SDS011;3594;42.152;24.714;2022-07-25T12:50:11;7.60;;;4.47;;
7104;SDS011;3594;42.152;24.714;2022-07-25T12:52:38;7.90;;;5.32;;
7104;SDS011;3594;42.152;24.714;2022-07-25T12:55:05;8.30;;;5.38;;
7104;SDS011;3594;42.152;24.714;2022-07-25T12:57:31;7.30;;;4.97;;
7104;SDS011;3594;42.152;24.714;2022-07-25T12:59:57;8.38;;;5.32;;
7104;SDS011;3594;42.152;24.714;2022-07-25T13:02:23;7.75;;;4.85;;
7104;SDS011;3594;42.152;24.714;2022-07-25T13:04:48;8.13;;;5.40;;
7104;SDS011;3594;42.152;24.714;2022-07-25T13:07:14;8.75;;;5.35;;
7104;SDS011;3594;42.152;24.714;2022-07-25T13:09:40;7.60;;;5.13;;
7104;SDS011;3594;42.152;24.714;2022-07-25T13:12:06;8.18;;;5.50;;
7104;SDS011;3594;42.152;24.714;2022-07-25T13:14:32;8.00;;;5.30;;
7104;SDS011;3594;42.152;24.714;2022-07-25T13:16:57;7.80;;;4.88;;
7104;SDS011;3594;42.152;24.714;2022-07-25T13:19:22;6.75;;;4.88;;
7104;SDS011;3594;42.152;24.714;2022-07-25T13:21:48;8.68;;;5.32;;
7104;SDS011;3594;42.152;24.714;2022-07-25T13:24:13;9.05;;;5.65;;
7104;SDS011;3594;42.152;24.714;2022-07-25T13:26:39;8.43;;;5.15;;
7104;SDS011;3594;42.152;24.714;2022-07-25T13:29:04;8.90;;;5.53;;
7104;SDS011;3594;42.152;24.714;2022-07-25T13:31:32;9.50;;;5.93;;
7104;SDS011;3594;42.152;24.714;2022-07-25T13:34:02;8.13;;;5.55;;
7104;SDS011;3594;42.152;24.714;2022-07-25T13:36:27;7.80;;;5.78;;
7104;SDS011;3594;42.152;24.714;2022-07-25T13:38:53;10.27;;;6.20;;
7104;SDS011;3594;42.152;24.714;2022-07-25T13:41:18;9.13;;;6.13;;
7104;SDS011;3594;42.152;24.714;2022-07-25T13:43:44;8.13;;;5.50;;
7104;SDS011;3594;42.152;24.714;2022-07-25T13:46:09;9.10;;;6.07;;
7104;SDS011;3594;42.152;24.714;2022-07-25T13:48:35;9.10;;;6.05;;
7104;SDS011;3594;42.152;24.714;2022-07-25T13:51:01;15.52;;;6.45;;
7104;SDS011;3594;42.152;24.714;2022-07-25T13:53:27;9.52;;;6.10;;
7104;SDS011;3594;42.152;24.714;2022-07-25T13:55:52;9.52;;;6.00;;
7104;SDS011;3594;42.152;24.714;2022-07-25T13:58:18;9.45;;;6.25;;
7104;SDS011;3594;42.152;24.714;2022-07-25T14:00:43;9.70;;;5.95;;
7104;SDS011;3594;42.152;24.714;2022-07-25T14:03:09;10.25;;;5.80;;
7104;SDS011;3594;42.152;24.714;2022-07-25T14:05:37;8.43;;;5.85;;
7104;SDS011;3594;42.152;24.714;2022-07-25T14:08:03;11.30;;;6.28;;
7104;SDS011;3594;42.152;24.714;2022-07-25T14:10:30;9.65;;;5.82;;
7104;SDS011;3594;42.152;24.714;2022-07-25T14:12:55;8.95;;;5.90;;
7104;SDS011;3594;42.152;24.714;2022-07-25T14:15:21;7.75;;;5.35;;
7104;SDS011;3594;42.152;24.714;2022-07-25T14:17:46;11.75;;;6.05;;
7104;SDS011;3594;42.152;24.714;2022-07-25T14:20:12;7.63;;;5.45;;
7104;SDS011;3594;42.152;24.714;2022-07-25T14:22:38;9.35;;;5.75;;
7104;SDS011;3594;42.152;24.714;2022-07-25T14:25:04;8.60;;;5.70;;
7104;SDS011;3594;42.152;24.714;2022-07-25T14:27:31;9.43;;;5.72;;
7104;SDS011;3594;42.152;24.714;2022-07-25T14:29:57;8.23;;;5.55;;
7104;SDS011;3594;42.152;24.714;2022-07-25T14:32:23;9.57;;;5.55;;
7104;SDS011;3594;42.152;24.714;2022-07-25T14:34:48;11.57;;;5.70;;
7104;SDS011;3594;42.152;24.714;2022-07-25T14:37:17;8.57;;;5.82;;
7104;SDS011;3594;42.152;24.714;2022-07-25T14:39:44;9.55;;;5.60;;
7104;SDS011;3594;42.152;24.714;2022-07-25T14:42:09;8.45;;;5.38;;
7104;SDS011;3594;42.152;24.714;2022-07-25T14:44:36;7.88;;;5.28;;
7104;SDS011;3594;42.152;24.714;2022-07-25T14:47:01;9.10;;;5.72;;
7104;SDS011;3594;42.152;24.714;2022-07-25T14:49:27;9.13;;;5.80;;
7104;SDS011;3594;42.152;24.714;2022-07-25T14:51:53;8.80;;;5.30;;
7104;SDS011;3594;42.152;24.714;2022-07-25T14:54:18;7.55;;;5.45;;
7104;SDS011;3594;42.152;24.714;2022-07-25T14:56:44;8.65;;;5.50;;
7104;SDS011;3594;42.152;24.714;2022-07-25T14:59:10;8.55;;;5.65;;
7104;SDS011;3594;42.152;24.714;2022-07-25T15:01:36;8.27;;;5.47;;
7104;SDS011;3594;42.152;24.714;2022-07-25T15:04:03;7.78;;;5.13;;
7104;SDS011;3594;42.152;24.714;2022-07-25T15:06:29;9.25;;;5.63;;
7104;SDS011;3594;42.152;24.714;2022-07-25T15:08:54;9.00;;;5.88;;
7104;SDS011;3594;42.152;24.714;2022-07-25T15:11:20;8.75;;;5.25;;
7104;SDS011;3594;42.152;24.714;2022-07-25T15:13:47;9.85;;;5.63;;
7104;SDS011;3594;42.152;24.714;2022-07-25T15:16:14;11.07;;;6.32;;
7104;SDS011;3594;42.152;24.714;2022-07-25T15:18:40;8.05;;;5.10;;